Time;durP1;ratioP1;P1;durP2;ratioP2;P2;SDS_P1;SDS_P2;PMS_P1;PMS_P2;Temp;Humidity;BMP_temperature;BMP_pressure;BME280_temperature;BME280_humidity;BME280_pressure;Samples;Min_cycle;Max_cycle;Signal;HPM_P1;HPM_P2
2022/03/21 00:01:32;;;;;;;;;;;20.40;99.90;;;;;;5073349;28;19916;-69
2022/03/21 00:03:59;;;;;;;;;;;20.40;99.90;;;;;;5073357;28;20375;-69
2022/03/21 00:06:26;;;;;;;;;;;20.40;99.90;;;;;;5073349;28;19909;-69
2022/03/21 00:08:52;;;;;;;;;;;20.50;99.90;;;;;;5066021;28;20363;-70
2022/03/21 00:11:19;;;;;;;;;;;20.50;99.90;;;;;;5053497;28;19916;-69
2022/03/21 00:13:46;;;;;;;;;;;20.50;99.90;;;;;;5073290;28;20246;-69
2022/03/21 00:16:12;;;;;;;;;;;20.50;99.90;;;;;;5073302;28;19974;-69
2022/03/21 00:18:39;;;;;;;;;;;20.60;99.90;;;;;;5053589;28;19925;-69
2022/03/21 00:21:06;;;;;;;;;;;20.70;99.90;;;;;;5053504;28;19959;-69
2022/03/21 00:23:33;;;;;;;;;;;20.80;99.90;;;;;;5053390;28;19908;-69
2022/03/21 00:26:01;;;;;;;;;;;20.80;99.90;;;;;;5053090;28;19908;-69
2022/03/21 00:28:27;;;;;;;;;;;20.90;99.90;;;;;;5053237;28;19909;-69
2022/03/21 00:30:55;;;;;;;;;;;20.90;99.90;;;;;;5053304;28;20059;-69
2022/03/21 00:33:22;;;;;;;;;;;21.00;99.90;;;;;;5053037;28;19924;-69
2022/03/21 00:35:50;;;;;;;;;;;21.10;99.90;;;;;;5053288;28;19912;-69
2022/03/21 00:38:18;;;;;;;;;;;21.20;99.90;;;;;;5052920;28;19997;-70
2022/03/21 00:40:45;;;;;;;;;;;21.30;99.90;;;;;;5052971;28;20256;-69
2022/03/21 00:43:22;;;;;;;;;;;21.60;99.90;;;;;;5052977;28;19909;-69
2022/03/21 00:45:54;;;;;;;;;;;21.70;99.90;;;;;;5053030;28;19909;-69
2022/03/21 00:48:24;;;;;;;;;;;21.80;99.90;;;;;;5052812;28;19947;-69
2022/03/21 00:50:52;;;;;;;;;;;21.90;99.90;;;;;;5053148;28;19908;-71
2022/03/21 00:53:19;;;;;;;;;;;22.00;99.90;;;;;;5053064;28;19908;-69
2022/03/21 00:55:46;;;;;;;;;;;22.00;99.90;;;;;;5055410;28;19920;-69
2022/03/21 00:58:13;;;;;;;;;;;22.00;99.90;;;;;;5056735;28;20321;-69
2022/03/21 01:00:39;;;;;;;;;;;22.00;99.90;;;;;;5057007;28;19963;-69
2022/03/21 01:03:06;;;;;;;;;;;21.90;99.90;;;;;;5057248;28;19909;-69
2022/03/21 01:05:33;;;;;;;;;;;22.00;99.90;;;;;;5056984;28;19909;-69
2022/03/21 01:08:02;;;;;;;;;;;22.20;99.90;;;;;;5057127;28;20267;-69
2022/03/21 01:10:29;;;;;;;;;;;22.50;99.90;;;;;;5056847;28;19955;-69
2022/03/21 01:12:56;;;;;;;;;;;22.60;99.90;;;;;;5056642;28;19908;-69
2022/03/21 01:15:24;;;;;;;;;;;22.60;99.90;;;;;;5056712;28;19982;-68
2022/03/21 01:17:51;;;;;;;;;;;22.60;99.90;;;;;;5069539;28;19921;-69
2022/03/21 01:20:19;;;;;;;;;;;22.60;99.90;;;;;;5076498;28;19912;-69
2022/03/21 01:22:46;;;;;;;;;;;22.70;99.90;;;;;;5076401;28;19999;-68
2022/03/21 01:25:13;;;;;;;;;;;22.90;99.90;;;;;;5076533;28;19915;-69
2022/03/21 01:27:40;;;;;;;;;;;23.10;99.90;;;;;;5076583;28;19991;-69
2022/03/21 01:30:08;;;;;;;;;;;23.60;99.90;;;;;;5076397;28;20266;-69
2022/03/21 01:32:35;;;;;;;;;;;23.80;99.90;;;;;;5076614;28;19924;-68
2022/03/21 01:35:03;;;;;;;;;;;23.60;99.90;;;;;;5076377;28;19908;-69
2022/03/21 01:37:29;;;;;;;;;;;23.80;99.90;;;;;;5076944;28;20286;-69
2022/03/21 01:39:56;;;;;;;;;;;23.90;99.90;;;;;;5076505;28;19908;-69
2022/03/21 01:42:23;;;;;;;;;;;23.80;99.90;;;;;;5075929;28;19921;-69
2022/03/21 01:44:53;;;;;;;;;;;23.80;99.90;;;;;;5076072;28;19908;-68
2022/03/21 01:47:20;;;;;;;;;;;23.60;99.90;;;;;;5076176;28;20322;-68
2022/03/21 01:49:48;;;;;;;;;;;23.50;99.90;;;;;;5075947;28;20347;-68
2022/03/21 01:52:15;;;;;;;;;;;23.20;99.90;;;;;;5075993;28;19952;-68
2022/03/21 01:57:27;;;;;;;;;;;23.10;99.90;;;;;;5076203;28;19915;-69
2022/03/21 01:59:53;;;;;;;;;;;23.00;99.90;;;;;;5075997;28;19996;-68
2022/03/21 02:02:20;;;;;;;;;;;22.90;99.90;;;;;;5075772;28;19959;-68
2022/03/21 02:04:47;;;;;;;;;;;22.90;99.90;;;;;;5075873;28;20295;-68
2022/03/21 02:07:15;;;;;;;;;;;22.90;99.90;;;;;;5075488;28;19909;-69
2022/03/21 02:09:42;;;;;;;;;;;22.90;99.90;;;;;;5075802;28;19908;-69
2022/03/21 02:12:09;;;;;;;;;;;23.00;99.90;;;;;;5075385;28;19923;-69
2022/03/21 02:14:39;;;;;;;;;;;23.00;99.90;;;;;;5075864;28;19912;-69
2022/03/21 02:17:06;;;;;;;;;;;23.00;99.90;;;;;;5075479;28;19943;-69
2022/03/21 02:19:36;;;;;;;;;;;23.10;99.90;;;;;;5075632;28;19908;-68
2022/03/21 02:22:12;;;;;;;;;;;23.20;99.90;;;;;;5075264;28;19924;-68
2022/03/21 02:24:49;;;;;;;;;;;23.30;99.90;;;;;;5075768;28;19948;-68
2022/03/21 02:27:17;;;;;;;;;;;23.30;99.90;;;;;;5075407;28;20358;-68
2022/03/21 02:29:45;;;;;;;;;;;23.30;99.90;;;;;;5075284;28;19908;-68
2022/03/21 02:32:12;;;;;;;;;;;23.10;99.90;;;;;;5075306;28;20419;-69
2022/03/21 02:34:39;;;;;;;;;;;22.90;99.90;;;;;;5075383;28;20270;-68
2022/03/21 02:37:11;;;;;;;;;;;22.90;99.90;;;;;;5075304;28;20369;-67
2022/03/21 02:39:39;;;;;;;;;;;22.80;99.90;;;;;;5075307;28;19908;-68
2022/03/21 02:42:05;;;;;;;;;;;22.90;99.90;;;;;;5074875;28;20259;-68
2022/03/21 02:44:35;;;;;;;;;;;23.00;99.90;;;;;;5075129;28;19909;-69
2022/03/21 02:47:03;;;;;;;;;;;23.10;99.90;;;;;;5075133;28;19908;-69
2022/03/21 02:49:29;;;;;;;;;;;23.00;99.90;;;;;;5075201;28;19908;-69
2022/03/21 02:51:56;;;;;;;;;;;23.00;99.90;;;;;;5074967;28;20346;-68
2022/03/21 02:54:23;;;;;;;;;;;23.10;99.90;;;;;;5074679;28;20309;-68
2022/03/21 02:56:50;;;;;;;;;;;23.20;99.90;;;;;;5074600;28;19908;-68
2022/03/21 02:59:17;;;;;;;;;;;23.20;99.90;;;;;;5074680;28;20332;-69
2022/03/21 03:01:44;;;;;;;;;;;23.30;99.90;;;;;;5074769;28;20358;-69
2022/03/21 03:04:11;;;;;;;;;;;23.40;99.90;;;;;;5074571;28;19909;-69
2022/03/21 03:06:40;;;;;;;;;;;23.40;99.90;;;;;;5065988;28;19913;-69
2022/03/21 03:09:08;;;;;;;;;;;23.40;99.90;;;;;;5061782;28;19913;-69
2022/03/21 03:11:37;;;;;;;;;;;23.60;99.90;;;;;;5074747;28;19969;-69
2022/03/21 03:14:05;;;;;;;;;;;23.60;99.90;;;;;;5074359;28;20324;-69
2022/03/21 03:16:31;;;;;;;;;;;23.70;99.90;;;;;;5072441;28;19958;-69
2022/03/21 03:18:58;;;;;;;;;;;23.70;99.90;;;;;;5053892;28;19916;-69
2022/03/21 03:21:26;;;;;;;;;;;24.00;99.90;;;;;;5054743;28;20290;-69
2022/03/21 03:23:53;;;;;;;;;;;24.00;99.90;;;;;;5054533;28;19909;-69
2022/03/21 03:26:20;;;;;;;;;;;23.90;99.90;;;;;;5054140;28;19909;-69
2022/03/21 03:28:46;;;;;;;;;;;23.80;99.90;;;;;;5054340;28;19909;-69
2022/03/21 03:31:14;;;;;;;;;;;23.70;99.90;;;;;;5054330;28;20377;-69
2022/03/21 03:33:41;;;;;;;;;;;23.60;99.90;;;;;;5054264;28;19913;-69
2022/03/21 03:36:08;;;;;;;;;;;23.60;99.90;;;;;;5054225;28;19909;-69
2022/03/21 03:38:35;;;;;;;;;;;23.60;99.90;;;;;;5054453;28;20450;-69
2022/03/21 03:41:01;;;;;;;;;;;23.60;99.90;;;;;;5053805;28;20413;-69
2022/03/21 03:43:29;;;;;;;;;;;23.60;99.90;;;;;;5054335;28;19908;-69
2022/03/21 03:45:57;;;;;;;;;;;23.80;99.90;;;;;;5053867;28;20420;-68
2022/03/21 03:48:25;;;;;;;;;;;23.80;99.90;;;;;;5053638;28;19940;-69
2022/03/21 03:50:51;;;;;;;;;;;23.70;99.90;;;;;;5053904;28;19909;-69
2022/03/21 03:53:18;;;;;;;;;;;23.60;99.90;;;;;;5053535;28;19912;-69
2022/03/21 03:55:45;;;;;;;;;;;23.60;99.90;;;;;;5053582;28;19987;-69
2022/03/21 03:58:11;;;;;;;;;;;23.50;99.90;;;;;;5053495;28;20271;-69
2022/03/21 04:00:38;;;;;;;;;;;23.50;99.90;;;;;;5053700;28;19913;-69
2022/03/21 04:05:49;;;;;;;;;;;23.40;99.90;;;;;;5046313;28;19915;-69
2022/03/21 04:08:19;;;;;;;;;;;23.50;99.90;;;;;;5053428;28;19909;-69
2022/03/21 04:10:45;;;;;;;;;;;23.70;99.90;;;;;;5053335;28;20046;-69
2022/03/21 04:13:12;;;;;;;;;;;23.80;99.90;;;;;;5053303;28;19961;-69
2022/03/21 04:15:39;;;;;;;;;;;23.80;99.90;;;;;;5053611;28;19909;-69
2022/03/21 04:18:06;;;;;;;;;;;23.70;99.90;;;;;;5052893;28;19925;-69
2022/03/21 04:20:33;;;;;;;;;;;23.70;99.90;;;;;;5053410;28;20339;-69
2022/03/21 04:23:00;;;;;;;;;;;23.80;99.90;;;;;;5053371;28;19917;-69
2022/03/21 04:25:28;;;;;;;;;;;23.80;99.90;;;;;;5053219;28;20018;-69
2022/03/21 04:27:54;;;;;;;;;;;23.70;99.90;;;;;;5053549;28;19970;-69
2022/03/21 04:30:21;;;;;;;;;;;23.90;99.90;;;;;;5053138;28;19909;-69
2022/03/21 04:32:49;;;;;;;;;;;23.80;99.90;;;;;;5053421;28;20293;-69
2022/03/21 04:35:15;;;;;;;;;;;23.90;99.90;;;;;;5053444;28;19919;-69
2022/03/21 04:37:42;;;;;;;;;;;23.80;99.90;;;;;;5053254;28;19952;-69
2022/03/21 04:40:09;;;;;;;;;;;23.60;99.90;;;;;;5052891;28;19916;-69
2022/03/21 04:42:36;;;;;;;;;;;23.70;99.90;;;;;;5053266;28;19920;-69
2022/03/21 04:45:04;;;;;;;;;;;23.60;99.90;;;;;;5053319;28;19944;-69
2022/03/21 04:47:30;;;;;;;;;;;23.70;99.90;;;;;;5053210;28;19916;-69
2022/03/21 04:49:57;;;;;;;;;;;23.80;99.90;;;;;;5053223;28;20350;-69
2022/03/21 04:52:24;;;;;;;;;;;23.70;99.90;;;;;;5053089;28;20318;-69
2022/03/21 04:54:51;;;;;;;;;;;23.70;99.90;;;;;;5053055;28;19915;-69
2022/03/21 04:57:21;;;;;;;;;;;23.60;99.90;;;;;;5053123;28;20254;-68
2022/03/21 04:59:47;;;;;;;;;;;23.70;99.90;;;;;;5052997;28;20321;-68
2022/03/21 05:02:15;;;;;;;;;;;23.60;99.90;;;;;;5052808;28;20255;-69
2022/03/21 05:04:42;;;;;;;;;;;23.50;99.90;;;;;;5052940;28;19916;-69
2022/03/21 05:07:12;;;;;;;;;;;23.50;99.90;;;;;;5052876;28;19909;-68
2022/03/21 05:09:41;;;;;;;;;;;23.50;99.90;;;;;;5052874;28;20338;-68
2022/03/21 05:12:08;;;;;;;;;;;23.60;99.90;;;;;;5052772;28;20336;-69
2022/03/21 05:14:35;;;;;;;;;;;23.50;99.90;;;;;;5053120;28;19913;-69
2022/03/21 05:17:02;;;;;;;;;;;23.30;99.90;;;;;;5034674;28;19917;-69
2022/03/21 05:19:29;;;;;;;;;;;23.20;99.90;;;;;;5032859;28;20364;-69
2022/03/21 05:21:55;;;;;;;;;;;23.20;99.90;;;;;;5032719;28;20429;-69
2022/03/21 05:32:43;;;;;;;;;;;23.20;99.90;;;;;;5016977;28;19910;-69
2022/03/21 05:37:55;;;;;;;;;;;23.30;99.90;;;;;;5032949;28;19971;-69
2022/03/21 05:40:41;;;;;;;;;;;23.30;99.90;;;;;;5032229;28;19913;-69
2022/03/21 05:43:07;;;;;;;;;;;23.40;99.90;;;;;;5036362;28;19913;-69
2022/03/21 05:45:34;;;;;;;;;;;23.40;99.90;;;;;;5036238;28;19916;-69
2022/03/21 05:50:45;;;;;;;;;;;23.50;99.90;;;;;;5036150;28;20275;-68
2022/03/21 05:53:12;;;;;;;;;;;23.40;99.90;;;;;;5033934;28;19909;-68
2022/03/21 05:55:39;;;;;;;;;;;23.40;99.90;;;;;;5034154;28;20348;-68
2022/03/21 05:58:06;;;;;;;;;;;23.20;99.90;;;;;;5034055;28;19917;-68
2022/03/21 06:00:34;;;;;;;;;;;23.10;99.90;;;;;;5034024;28;20015;-68
2022/03/21 06:03:02;;;;;;;;;;;23.10;99.90;;;;;;5033934;28;20253;-69
2022/03/21 06:05:29;;;;;;;;;;;23.10;99.90;;;;;;5033754;28;20257;-68
2022/03/21 06:07:55;;;;;;;;;;;23.00;99.90;;;;;;5033985;28;19913;-69
2022/03/21 06:10:22;;;;;;;;;;;23.00;99.90;;;;;;5033479;28;19959;-69
2022/03/21 06:12:50;;;;;;;;;;;22.90;99.90;;;;;;5033677;28;19963;-68
2022/03/21 06:15:17;;;;;;;;;;;22.80;99.90;;;;;;5033577;28;19909;-68
2022/03/21 06:17:44;;;;;;;;;;;22.80;99.90;;;;;;5044951;28;19960;-69
2022/03/21 06:20:12;;;;;;;;;;;22.80;99.90;;;;;;5053416;28;20017;-68
2022/03/21 06:22:39;;;;;;;;;;;22.80;99.90;;;;;;5053545;28;20015;-69
2022/03/21 06:25:06;;;;;;;;;;;22.70;99.90;;;;;;5053277;28;20008;-69
2022/03/21 06:27:37;;;;;;;;;;;22.60;99.90;;;;;;5053664;28;19939;-68
2022/03/21 06:30:05;;;;;;;;;;;22.60;99.90;;;;;;5053138;28;19936;-68
2022/03/21 06:32:32;;;;;;;;;;;22.60;99.90;;;;;;5053312;28;19931;-69
2022/03/21 06:34:58;;;;;;;;;;;22.60;99.90;;;;;;5052683;28;19959;-68
2022/03/21 06:37:25;;;;;;;;;;;22.60;99.90;;;;;;5052958;28;19913;-69
2022/03/21 06:39:52;;;;;;;;;;;22.60;99.90;;;;;;5052734;28;19909;-69
2022/03/21 06:42:21;;;;;;;;;;;22.70;99.90;;;;;;5052582;28;20375;-68
2022/03/21 06:44:49;;;;;;;;;;;22.70;99.90;;;;;;5052989;28;19994;-68
2022/03/21 06:47:20;;;;;;;;;;;22.60;99.90;;;;;;5052913;28;19952;-68
2022/03/21 06:49:47;;;;;;;;;;;22.60;99.90;;;;;;5052790;28;19909;-68
2022/03/21 06:52:14;;;;;;;;;;;22.50;99.90;;;;;;5051797;28;20350;-69
2022/03/21 06:54:43;;;;;;;;;;;22.50;99.90;;;;;;5050972;28;19916;-68
2022/03/21 06:57:10;;;;;;;;;;;22.30;99.90;;;;;;5052731;28;19956;-69
2022/03/21 06:59:37;;;;;;;;;;;22.30;99.90;;;;;;5052737;28;19940;-69
2022/03/21 07:02:04;;;;;;;;;;;22.30;99.90;;;;;;5052705;28;19921;-68
2022/03/21 07:04:31;;;;;;;;;;;22.40;99.90;;;;;;5052595;28;20431;-70
2022/03/21 07:06:58;;;;;;;;;;;22.30;99.90;;;;;;5052082;28;19948;-69
2022/03/21 07:09:25;;;;;;;;;;;22.20;99.90;;;;;;5052351;28;19928;-69
2022/03/21 07:11:52;;;;;;;;;;;22.20;99.90;;;;;;5052473;28;19912;-69
2022/03/21 07:14:22;;;;;;;;;;;22.20;99.90;;;;;;5052396;28;19912;-69
2022/03/21 07:16:48;;;;;;;;;;;22.10;99.90;;;;;;5052400;28;20079;-69
2022/03/21 07:19:15;;;;;;;;;;;22.10;99.90;;;;;;5052121;28;19913;-70
2022/03/21 07:21:42;;;;;;;;;;;22.10;99.90;;;;;;5052380;28;19917;-70
2022/03/21 07:24:08;;;;;;;;;;;22.10;99.90;;;;;;5051741;28;19909;-69
2022/03/21 07:26:36;;;;;;;;;;;22.10;99.90;;;;;;5052296;28;20278;-70
2022/03/21 07:29:04;;;;;;;;;;;22.10;99.90;;;;;;5052185;28;20339;-69
2022/03/21 07:31:31;;;;;;;;;;;22.10;99.90;;;;;;5052053;28;19913;-70
2022/03/21 07:33:58;;;;;;;;;;;22.00;99.90;;;;;;5051838;28;19960;-69
2022/03/21 07:36:25;;;;;;;;;;;22.00;99.90;;;;;;5051922;28;19913;-69
2022/03/21 07:38:51;;;;;;;;;;;21.90;99.90;;;;;;5051906;28;20250;-70
2022/03/21 07:41:18;;;;;;;;;;;21.90;99.90;;;;;;5052092;28;19913;-69
2022/03/21 07:43:45;;;;;;;;;;;21.80;99.90;;;;;;5051935;28;20003;-70
2022/03/21 07:48:56;;;;;;;;;;;21.70;99.90;;;;;;5052306;28;19924;-70
2022/03/21 07:51:22;;;;;;;;;;;21.70;99.90;;;;;;5052012;28;19913;-69
2022/03/21 07:53:49;;;;;;;;;;;21.70;99.90;;;;;;5051681;28;20418;-68
2022/03/21 07:56:16;;;;;;;;;;;21.70;99.90;;;;;;5051567;28;19912;-68
2022/03/21 07:58:42;;;;;;;;;;;21.60;99.90;;;;;;5051434;28;19978;-68
2022/03/21 08:01:09;;;;;;;;;;;21.60;99.90;;;;;;5051691;28;19917;-68
2022/03/21 08:03:36;;;;;;;;;;;21.60;99.90;;;;;;5051258;28;19961;-69
2022/03/21 08:06:03;;;;;;;;;;;21.50;99.90;;;;;;5052266;28;19909;-69
2022/03/21 08:08:30;;;;;;;;;;;21.50;99.90;;;;;;5053464;28;19909;-68
2022/03/21 08:10:57;;;;;;;;;;;21.50;99.90;;;;;;5053798;28;19913;-68
2022/03/21 08:13:25;;;;;;;;;;;21.50;99.90;;;;;;5053528;28;19977;-68
2022/03/21 08:15:52;;;;;;;;;;;21.40;99.90;;;;;;5053537;28;19916;-68
2022/03/21 08:18:19;;;;;;;;;;;21.40;99.90;;;;;;5053247;28;20382;-69
2022/03/21 08:20:45;;;;;;;;;;;21.30;99.90;;;;;;5053401;28;19924;-69
2022/03/21 08:23:13;;;;;;;;;;;21.30;99.90;;;;;;5053151;28;19967;-68
2022/03/21 08:25:41;;;;;;;;;;;21.30;99.90;;;;;;5053451;28;20363;-69
2022/03/21 08:28:09;;;;;;;;;;;21.20;99.90;;;;;;5053174;28;19909;-69
2022/03/21 08:30:36;;;;;;;;;;;21.30;99.90;;;;;;5053248;28;19960;-68
2022/03/21 08:33:04;;;;;;;;;;;21.20;99.90;;;;;;5053246;28;19931;-69
2022/03/21 08:35:30;;;;;;;;;;;21.20;99.90;;;;;;5053217;28;19909;-69
2022/03/21 08:37:57;;;;;;;;;;;21.20;99.90;;;;;;5053182;28;20378;-69
2022/03/21 08:40:24;;;;;;;;;;;21.20;99.90;;;;;;5053005;28;20003;-70
2022/03/21 08:42:50;;;;;;;;;;;21.10;99.90;;;;;;5052985;28;19927;-70
2022/03/21 08:45:18;;;;;;;;;;;21.10;99.90;;;;;;5053091;28;19916;-70
2022/03/21 08:47:45;;;;;;;;;;;21.10;99.90;;;;;;5052959;28;19962;-70
2022/03/21 08:50:12;;;;;;;;;;;21.10;99.90;;;;;;5052864;28;20323;-69
2022/03/21 08:52:39;;;;;;;;;;;21.00;99.90;;;;;;5053257;28;19908;-69
2022/03/21 08:55:07;;;;;;;;;;;21.00;99.90;;;;;;5052980;28;20318;-70
2022/03/21 08:57:33;;;;;;;;;;;21.00;99.90;;;;;;5053019;28;20375;-69
2022/03/21 09:00:02;;;;;;;;;;;20.90;99.90;;;;;;5053082;28;19995;-69
2022/03/21 09:02:30;;;;;;;;;;;20.90;99.90;;;;;;5052919;28;19916;-69
2022/03/21 09:04:58;;;;;;;;;;;20.90;99.90;;;;;;5053008;28;19909;-69
2022/03/21 09:07:25;;;;;;;;;;;20.90;99.90;;;;;;5052898;28;19909;-69
2022/03/21 09:09:51;;;;;;;;;;;20.80;99.90;;;;;;5052740;28;20322;-69
2022/03/21 09:12:18;;;;;;;;;;;20.80;99.90;;;;;;5053174;28;20290;-70
2022/03/21 09:14:45;;;;;;;;;;;20.80;99.90;;;;;;5072325;28;20398;-69
2022/03/21 09:17:13;;;;;;;;;;;20.80;99.90;;;;;;5070319;28;19916;-69
2022/03/21 09:19:41;;;;;;;;;;;20.70;99.90;;;;;;5076187;28;19912;-69
2022/03/21 09:22:07;;;;;;;;;;;20.80;99.90;;;;;;5073622;28;20347;-69
2022/03/21 09:24:34;;;;;;;;;;;20.70;99.90;;;;;;5066392;28;20376;-69
2022/03/21 09:27:01;;;;;;;;;;;20.70;99.90;;;;;;5070246;28;20351;-69
2022/03/21 09:29:27;;;;;;;;;;;20.60;99.90;;;;;;5075538;28;20287;-69
2022/03/21 09:31:54;;;;;;;;;;;20.70;99.90;;;;;;5074605;28;19962;-69
2022/03/21 09:34:20;;;;;;;;;;;20.70;99.90;;;;;;5074479;28;19908;-69
2022/03/21 09:36:48;;;;;;;;;;;20.60;99.90;;;;;;5074830;28;19912;-69
2022/03/21 09:39:15;;;;;;;;;;;20.60;99.90;;;;;;5074448;28;19913;-69
2022/03/21 09:41:42;;;;;;;;;;;20.60;99.90;;;;;;5074507;28;20359;-69
2022/03/21 09:44:09;;;;;;;;;;;20.60;99.90;;;;;;5074505;28;19908;-70
2022/03/21 09:46:40;;;;;;;;;;;20.60;99.90;;;;;;5076389;28;20003;-69
2022/03/21 09:49:08;;;;;;;;;;;20.50;99.90;;;;;;5076425;28;19916;-69
2022/03/21 09:51:34;;;;;;;;;;;20.50;99.90;;;;;;5076454;28;20317;-69
2022/03/21 09:54:02;;;;;;;;;;;20.50;99.90;;;;;;5076057;28;20363;-69
2022/03/21 09:56:29;;;;;;;;;;;20.50;99.90;;;;;;5076540;28;20011;-69
2022/03/21 09:58:59;;;;;;;;;;;20.50;99.90;;;;;;5076150;28;20343;-69
2022/03/21 10:01:30;;;;;;;;;;;20.50;99.90;;;;;;5076052;28;20290;-69
2022/03/21 10:03:57;;;;;;;;;;;20.40;99.90;;;;;;5076023;28;19960;-69
2022/03/21 10:06:27;;;;;;;;;;;20.40;99.90;;;;;;5075912;28;20274;-69
2022/03/21 10:09:14;;;;;;;;;;;20.40;99.90;;;;;;5075856;28;19908;-69
2022/03/21 10:11:51;;;;;;;;;;;20.30;99.90;;;;;;5075666;28;20354;-69
2022/03/21 10:14:24;;;;;;;;;;;20.30;99.90;;;;;;5075355;28;19912;-69
2022/03/21 10:17:01;;;;;;;;;;;20.30;99.90;;;;;;5070843;28;19928;-69
2022/03/21 10:19:40;;;;;;;;;;;20.30;99.90;;;;;;5054831;28;19916;-69
2022/03/21 10:22:11;;;;;;;;;;;20.30;99.90;;;;;;5054412;28;19960;-70
2022/03/21 10:24:42;;;;;;;;;;;20.30;99.90;;;;;;5054644;28;19913;-69
2022/03/21 10:27:26;;;;;;;;;;;20.30;99.90;;;;;;5054546;28;19909;-68
2022/03/21 10:29:54;;;;;;;;;;;20.30;99.90;;;;;;5054687;28;20023;-69
2022/03/21 10:32:37;;;;;;;;;;;20.20;99.90;;;;;;5054204;28;19916;-69
2022/03/21 10:35:06;;;;;;;;;;;20.30;99.90;;;;;;5053348;28;20282;-69
2022/03/21 10:37:42;;;;;;;;;;;20.20;99.90;;;;;;5053181;28;19915;-69
2022/03/21 10:40:30;;;;;;;;;;;20.20;99.90;;;;;;5054294;28;19923;-69
2022/03/21 10:42:57;;;;;;;;;;;20.20;99.90;;;;;;5054158;28;19916;-69
2022/03/21 10:45:25;;;;;;;;;;;20.20;99.90;;;;;;5054355;28;19913;-69
2022/03/21 10:47:52;;;;;;;;;;;20.10;99.90;;;;;;5054285;28;19954;-69
2022/03/21 10:50:29;;;;;;;;;;;20.10;99.90;;;;;;5053737;28;19908;-69
2022/03/21 10:53:14;;;;;;;;;;;20.10;99.90;;;;;;5053576;28;19912;-69
2022/03/21 10:55:42;;;;;;;;;;;20.10;99.90;;;;;;5054182;28;19991;-69
2022/03/21 10:58:09;;;;;;;;;;;20.10;99.90;;;;;;5053939;28;19916;-69
2022/03/21 11:00:36;;;;;;;;;;;20.10;99.90;;;;;;5053732;28;19913;-69
2022/03/21 11:03:13;;;;;;;;;;;20.10;99.90;;;;;;5053776;28;19916;-69
2022/03/21 11:05:41;;;;;;;;;;;20.10;99.90;;;;;;5053778;28;20364;-69
2022/03/21 11:08:11;;;;;;;;;;;20.10;99.90;;;;;;5052884;28;19909;-69
2022/03/21 11:10:38;;;;;;;;;;;20.10;99.90;;;;;;5053834;28;19909;-69
2022/03/21 11:13:05;;;;;;;;;;;20.00;99.90;;;;;;5053705;28;19908;-70
2022/03/21 11:15:35;;;;;;;;;;;20.10;99.90;;;;;;5053571;28;20004;-69
2022/03/21 11:18:02;;;;;;;;;;;20.00;99.90;;;;;;4944043;28;3529620;-69
2022/03/21 11:20:29;;;;;;;;;;;20.00;99.90;;;;;;5074577;28;19967;-69
2022/03/21 11:22:57;;;;;;;;;;;20.00;99.90;;;;;;5073800;28;19958;-69
2022/03/21 11:25:27;;;;;;;;;;;20.00;99.90;;;;;;5074611;28;19944;-69
2022/03/21 11:28:12;;;;;;;;;;;20.00;99.90;;;;;;5074317;28;19934;-69
2022/03/21 11:30:41;;;;;;;;;;;20.00;99.90;;;;;;5074509;28;19908;-69
2022/03/21 11:33:35;;;;;;;;;;;20.00;99.90;;;;;;5074507;28;19909;-69
2022/03/21 11:36:03;;;;;;;;;;;20.00;99.90;;;;;;5036909;28;19962;-69
2022/03/21 11:38:31;;;;;;;;;;;20.00;99.90;;;;;;5072953;28;19961;-69
2022/03/21 11:41:13;;;;;;;;;;;19.90;99.90;;;;;;5074064;28;19966;-69
2022/03/21 11:43:41;;;;;;;;;;;19.90;99.90;;;;;;5074017;28;19913;-69
2022/03/21 11:46:30;;;;;;;;;;;19.90;99.90;;;;;;5073848;28;20347;-69
2022/03/21 11:48:58;;;;;;;;;;;19.80;99.90;;;;;;5074015;28;19962;-69
2022/03/21 11:51:26;;;;;;;;;;;19.80;99.90;;;;;;5073998;28;19969;-69
2022/03/21 11:53:54;;;;;;;;;;;19.80;99.90;;;;;;5073385;28;19951;-69
2022/03/21 11:56:38;;;;;;;;;;;19.80;99.90;;;;;;5073564;28;19909;-69
2022/03/21 11:59:05;;;;;;;;;;;19.80;99.90;;;;;;5073727;28;20378;-69
2022/03/21 12:01:32;;;;;;;;;;;19.80;99.90;;;;;;5073858;28;19916;-69
2022/03/21 12:04:18;;;;;;;;;;;19.80;99.90;;;;;;5073665;28;19908;-69
2022/03/21 12:06:45;;;;;;;;;;;19.90;99.90;;;;;;5048497;28;20015;-69
2022/03/21 12:09:13;;;;;;;;;;;19.80;99.90;;;;;;5053824;28;19959;-69
2022/03/21 12:11:40;;;;;;;;;;;19.80;99.90;;;;;;5053070;28;19915;-69
2022/03/21 12:17:17;;;;;;;;;;;19.70;99.90;;;;;;5007650;28;19921;-69
2022/03/21 12:20:03;;;;;;;;;;;19.60;99.90;;;;;;5053800;28;19923;-69
2022/03/21 12:22:36;;;;;;;;;;;19.60;99.90;;;;;;5053253;28;20004;-68
2022/03/21 12:25:04;;;;;;;;;;;19.60;99.90;;;;;;5053681;28;20377;-69
2022/03/21 12:27:42;;;;;;;;;;;19.60;99.90;;;;;;5053530;28;19909;-69
2022/03/21 12:30:27;;;;;;;;;;;19.70;99.90;;;;;;5053179;28;19908;-69
2022/03/21 12:32:57;;;;;;;;;;;19.80;99.90;;;;;;5053384;28;19913;-69
2022/03/21 12:35:35;;;;;;;;;;;19.80;99.90;;;;;;5053498;28;19909;-69
2022/03/21 12:38:01;;;;;;;;;;;19.80;99.90;;;;;;5053152;28;19908;-69
2022/03/21 12:40:28;;;;;;;;;;;19.80;99.90;;;;;;5053463;28;19909;-69
2022/03/21 12:42:57;;;;;;;;;;;19.70;99.90;;;;;;5053237;28;19943;-69
2022/03/21 12:45:24;;;;;;;;;;;19.70;99.90;;;;;;5053252;28;20312;-69
2022/03/21 12:47:52;;;;;;;;;;;19.70;99.90;;;;;;5053079;28;19909;-69
2022/03/21 12:50:23;;;;;;;;;;;19.70;99.90;;;;;;5052079;28;19909;-70
2022/03/21 12:52:57;;;;;;;;;;;19.70;99.90;;;;;;5052943;28;19987;-69
2022/03/21 12:55:24;;;;;;;;;;;19.60;99.90;;;;;;5053019;28;19932;-69
2022/03/21 12:57:55;;;;;;;;;;;19.60;99.90;;;;;;5053048;28;19915;-69
2022/03/21 13:00:23;;;;;;;;;;;19.50;99.90;;;;;;5053004;28;19913;-69
2022/03/21 13:02:55;;;;;;;;;;;19.40;99.90;;;;;;5053183;28;19917;-69
2022/03/21 13:10:54;;;;;;;;;;;19.50;99.90;;;;;;5053125;28;19915;-69
2022/03/21 13:13:24;;;;;;;;;;;19.50;99.90;;;;;;5052942;28;19909;-69
2022/03/21 13:16:05;;;;;;;;;;;19.60;99.90;;;;;;5052842;28;19913;-69
2022/03/21 13:18:41;;;;;;;;;;;19.60;99.90;;;;;;5052732;28;19921;-70
2022/03/21 13:21:08;;;;;;;;;;;19.60;99.90;;;;;;5052915;28;19913;-69
2022/03/21 13:23:34;;;;;;;;;;;19.50;99.90;;;;;;5052805;28;19919;-69
2022/03/21 13:26:11;;;;;;;;;;;19.50;99.90;;;;;;5052969;28;19916;-69
2022/03/21 13:28:39;;;;;;;;;;;19.50;99.90;;;;;;5052635;28;19908;-69
2022/03/21 13:31:11;;;;;;;;;;;19.50;99.90;;;;;;5052962;28;19909;-69
2022/03/21 13:33:40;;;;;;;;;;;19.40;99.90;;;;;;5052797;28;19909;-70
2022/03/21 13:36:08;;;;;;;;;;;19.40;99.90;;;;;;5052524;28;19977;-69
2022/03/21 13:38:37;;;;;;;;;;;19.40;99.90;;;;;;5052514;28;19909;-69
2022/03/21 13:41:12;;;;;;;;;;;19.40;99.90;;;;;;5052606;28;19913;-70
2022/03/21 13:43:39;;;;;;;;;;;19.40;99.90;;;;;;5052755;28;19912;-69
2022/03/21 13:46:06;;;;;;;;;;;19.50;99.90;;;;;;5052726;28;20011;-70
2022/03/21 13:48:38;;;;;;;;;;;19.40;99.90;;;;;;5052707;28;20009;-69
2022/03/21 13:51:07;;;;;;;;;;;19.40;99.90;;;;;;5052763;28;19909;-70
2022/03/21 13:53:39;;;;;;;;;;;19.40;99.90;;;;;;5052663;28;19909;-69
2022/03/21 13:56:06;;;;;;;;;;;19.40;99.90;;;;;;5052406;28;19909;-69
2022/03/21 13:58:34;;;;;;;;;;;19.40;99.90;;;;;;5052618;28;19999;-69
2022/03/21 14:01:01;;;;;;;;;;;19.50;99.90;;;;;;5052511;28;20011;-69
2022/03/21 14:03:34;;;;;;;;;;;19.50;99.90;;;;;;5055684;28;19909;-69
2022/03/21 14:06:02;;;;;;;;;;;19.50;99.90;;;;;;5056135;28;20386;-70
2022/03/21 14:08:28;;;;;;;;;;;19.40;99.90;;;;;;5055926;28;19956;-69
2022/03/21 14:11:01;;;;;;;;;;;19.40;99.90;;;;;;5055998;28;19913;-70
2022/03/21 14:13:29;;;;;;;;;;;19.40;99.90;;;;;;5055950;28;19999;-69
2022/03/21 14:15:59;;;;;;;;;;;19.30;99.90;;;;;;5056022;28;20367;-69
2022/03/21 14:18:30;;;;;;;;;;;19.30;99.90;;;;;;5055392;28;20007;-70
2022/03/21 14:20:57;;;;;;;;;;;19.30;99.90;;;;;;5055678;28;20359;-70
2022/03/21 14:23:24;;;;;;;;;;;19.20;99.90;;;;;;5055736;28;19913;-70
2022/03/21 14:28:35;;;;;;;;;;;19.20;99.90;;;;;;5055856;28;20436;-69
2022/03/21 14:31:04;;;;;;;;;;;19.20;99.90;;;;;;5055538;28;19909;-69
2022/03/21 14:33:31;;;;;;;;;;;19.20;99.90;;;;;;5055597;28;20363;-69
2022/03/21 14:35:57;;;;;;;;;;;19.20;99.90;;;;;;5055730;28;19909;-69
2022/03/21 14:38:24;;;;;;;;;;;19.20;99.90;;;;;;5055325;28;19915;-69
2022/03/21 14:40:51;;;;;;;;;;;19.10;99.90;;;;;;5055381;28;19913;-69
2022/03/21 14:43:18;;;;;;;;;;;19.10;99.90;;;;;;5055280;28;19913;-69
2022/03/21 14:45:45;;;;;;;;;;;19.10;99.90;;;;;;5055245;28;19913;-69
2022/03/21 14:48:13;;;;;;;;;;;19.10;99.90;;;;;;5055184;28;19916;-70
2022/03/21 14:50:40;;;;;;;;;;;19.10;99.90;;;;;;5055419;28;20283;-70
2022/03/21 14:53:07;;;;;;;;;;;19.10;99.90;;;;;;5055052;28;19917;-70
2022/03/21 14:55:34;;;;;;;;;;;19.00;99.90;;;;;;5055078;28;19909;-70
2022/03/21 14:58:00;;;;;;;;;;;18.90;99.90;;;;;;5064650;28;20317;-70